Flight Track Log - Related Links

Times and Time Zones

All times are in EDT time to prevent confusion due to time zone crossing. See the N789XJ flight status page for this flight to view local times or setup timezone preferences in your user account.

Time Position Orientation Groundspeed Altitude Reporting Facility
EDT Latitude Longitude Course Direction KTS MPH feet Rate Location/Type
Wed 02:39:06 PM 42.5500 -71.2833 North 279 321 5,500  Level KA90
Wed 02:40:06 PM 42.5000 -71.3667 231° Southwest 288 331 9,900 2,925 Climbing KA90
Wed 02:42:27 PM 42.3450 -71.5750 225° Southwest 371 427 15,300 2,776 Climbing Boston Center
Wed 02:43:27 PM 42.3211 -71.7297 258° West 376 433 19,200 3,200 Climbing Boston Center
Wed 02:44:27 PM 42.3178 -71.8758 268° West 381 438 21,700 2,000 Climbing Boston Center
Wed 02:45:27 PM 42.3164 -72.0303 269° West 392 451 23,200 2,350 Climbing Boston Center
Wed 02:46:27 PM 42.3125 -72.1847 268° West 411 473 26,400 2,700 Climbing Boston Center
Wed 02:47:27 PM 42.3086 -72.3419 268° West 422 486 28,600 2,100 Climbing Boston Center
Wed 02:48:27 PM 42.3044 -72.5103 268° West 434 499 30,600 1,950 Climbing Boston Center
Wed 02:49:27 PM 42.2981 -72.6814 267° West 448 516 32,500 2,250 Climbing Boston Center
Wed 02:50:27 PM 42.2914 -72.8583 267° West 464 534 35,100 2,450 Climbing Boston Center
Wed 02:51:27 PM 42.2822 -73.0350 266° West 474 545 37,400 2,650 Climbing Boston Center
Wed 02:52:27 PM 42.2686 -73.2061 264° West 480 552 40,400 1,700 Climbing Boston Center
Wed 02:53:27 PM 42.2592 -73.3658 265° West 467 537 40,800 500 Climbing Boston Center
Wed 02:54:27 PM 42.2428 -73.5478 263° West 452 520 41,400 600 Climbing Boston Center
Wed 02:55:27 PM 42.2222 -73.7353 262° West 484 557 42,000 600 Climbing Boston Center
Wed 02:56:27 PM 42.2053 -73.9200 263° West 501 577 42,600 500 Climbing Boston Center
Wed 02:57:27 PM 42.1881 -74.1044 263° West 506 582 43,000 182 Climbing Boston Center
Wed 02:58:39 PM 42.1686 -74.2889 262° West 501 577 43,000  Level Boston Center
Wed 02:59:39 PM 42.1483 -74.4956 263° West 506 582 43,000  Level Boston Center
Wed 03:00:39 PM 42.1283 -74.6739 261° West 506 582 43,000  Level Boston Center
Wed 03:02:54 PM 42.0864 -75.0856 262° West 502 578 43,000  Level New York Center
Wed 03:03:55 PM 42.0608 -75.2683 259° West 502 578 43,000  Level New York Center
Wed 03:04:53 PM 42.0125 -75.4408 249° West 502 578 43,000  Level New York Center
Wed 03:05:53 PM 41.9481 -75.6006 242° Southwest 497 572 43,000  Level New York Center
Wed 03:06:54 PM 41.8811 -75.7600 241° Southwest 497 572 43,000  Level New York Center
Wed 03:07:55 PM 41.8158 -75.9194 241° Southwest 497 572 43,000  Level New York Center
Wed 03:08:55 PM 41.7461 -76.0836 240° Southwest 497 572 43,000  Level New York Center
Wed 03:09:53 PM 41.6786 -76.2450 241° Southwest 503 579 43,000  Level New York Center
Wed 03:10:53 PM 41.6106 -76.4058 241° Southwest 503 579 43,000  Level New York Center
Wed 03:11:54 PM 41.5353 -76.5825 240° Southwest 503 579 43,000  Level New York Center
Wed 03:12:54 PM 41.4650 -76.7425 240° Southwest 503 579 43,000  Level New York Center
Wed 03:13:55 PM 41.3964 -76.9022 240° Southwest 503 579 43,000  Level New York Center
Wed 03:14:55 PM 41.3256 -77.0617 239° Southwest 503 579 43,000  Level New York Center
Wed 03:15:53 PM 41.2567 -77.2208 240° Southwest 503 579 43,000  Level New York Center
Wed 03:16:53 PM 41.2017 -77.3508 241° Southwest 508 585 43,000  Level New York Center
Wed 03:17:54 PM 41.1183 -77.5356 239° Southwest 503 579 43,000  Level New York Center
Wed 03:20:09 PM 40.9631 -77.8828 239° Southwest 516 594 43,000  Level Cleveland Center
Wed 03:21:09 PM 40.8831 -78.0344 235° Southwest 508 585 43,000  Level Cleveland Center
Wed 03:22:09 PM 40.7986 -78.1747 232° Southwest 503 579 43,000  Level Cleveland Center
Wed 03:23:09 PM 40.7097 -78.3150 230° Southwest 503 579 43,000  Level Cleveland Center
Wed 03:24:09 PM 40.6206 -78.4522 229° Southwest 503 579 43,000  Level Cleveland Center
Wed 03:25:09 PM 40.5292 -78.5917 229° Southwest 503 579 43,000  Level Cleveland Center
Wed 03:26:09 PM 40.4378 -78.7308 229° Southwest 503 579 43,000  Level Cleveland Center
Wed 03:27:09 PM 40.3503 -78.8694 230° Southwest 503 579 43,000  Level Cleveland Center
Wed 03:28:09 PM 40.2583 -79.0050 228° Southwest 503 579 43,000  Level Cleveland Center
Wed 03:29:09 PM 40.1686 -79.1431 230° Southwest 503 579 43,000  Level Cleveland Center
Wed 03:30:55 PM 40.0097 -79.3797 229° Southwest 499 574 43,000  Level Indianapolis Center
Wed 03:31:57 PM 39.9194 -79.5161 229° Southwest 498 573 43,000  Level Indianapolis Center
Wed 03:32:59 PM 39.8261 -79.6517 228° Southwest 502 578 43,000  Level Indianapolis Center
Wed 03:34:01 PM 39.7167 -79.8139 229° Southwest 499 574 43,000  Level Indianapolis Center
Wed 03:35:03 PM 39.6244 -79.9503 229° Southwest 501 577 43,000  Level Indianapolis Center
Wed 03:36:05 PM 39.5319 -80.0864 229° Southwest 501 577 43,000  Level Indianapolis Center
Wed 03:37:07 PM 39.4375 -80.2219 228° Southwest 505 581 43,000  Level Indianapolis Center
Wed 03:38:09 PM 39.3417 -80.3564 227° Southwest 508 585 43,000  Level Indianapolis Center
Wed 03:39:11 PM 39.2453 -80.4908 227° Southwest 509 586 43,000  Level Indianapolis Center
Wed 03:40:13 PM 39.1489 -80.6256 227° Southwest 509 586 43,000  Level Indianapolis Center
Wed 03:41:15 PM 39.0347 -80.7858 228° Southwest 507 583 43,000  Level Indianapolis Center
Wed 03:42:17 PM 38.9400 -80.9200 228° Southwest 507 583 43,000  Level Indianapolis Center
Wed 03:43:19 PM 38.8478 -81.0550 229° Southwest 501 577 43,000  Level Indianapolis Center
Wed 03:44:21 PM 38.7547 -81.1900 229° Southwest 502 578 43,000  Level Indianapolis Center
Wed 03:45:23 PM 38.6611 -81.3250 228° Southwest 502 578 43,000  Level Indianapolis Center
Wed 03:46:25 PM 38.5658 -81.4617 228° Southwest 501 577 43,000  Level Indianapolis Center
Wed 03:47:27 PM 38.4722 -81.5972 229° Southwest 500 575 43,000  Level Indianapolis Center
Wed 03:48:30 PM 38.3761 -81.7258 226° Southwest 498 573 43,000  Level Indianapolis Center
Wed 03:49:32 PM 38.2703 -81.8411 221° Southwest 499 574 43,000  Level Indianapolis Center
Wed 03:50:34 PM 38.1342 -81.9650 216° Southwest 498 573 43,000  Level Indianapolis Center
Wed 03:51:36 PM 38.0217 -82.0667 215° Southwest 497 572 43,000  Level Indianapolis Center
Wed 03:52:38 PM 37.9000 -82.1742 215° Southwest 500 575 43,000  Level Indianapolis Center
Wed 03:53:40 PM 37.7875 -82.2731 215° Southwest 493 567 43,000  Level Indianapolis Center
Wed 03:54:42 PM 37.6747 -82.3742 215° Southwest 496 571 43,000  Level Indianapolis Center
Wed 03:55:44 PM 37.5619 -82.4739 215° Southwest 495 570 43,000  Level Indianapolis Center
Wed 03:56:46 PM 37.4483 -82.5731 215° Southwest 499 574 43,000  Level Indianapolis Center
Wed 03:57:48 PM 37.3167 -82.6892 215° Southwest 497 572 43,000  Level Indianapolis Center
Wed 03:58:50 PM 37.2014 -82.7894 215° Southwest 504 580 43,000  Level Indianapolis Center
Wed 03:59:52 PM 37.0869 -82.8883 215° Southwest 503 579 43,000  Level Indianapolis Center
Wed 04:00:54 PM 36.9664 -82.9939 215° Southwest 503 579 43,000  Level Indianapolis Center
Wed 04:01:56 PM 36.8425 -83.1003 215° Southwest 506 582 43,000  Level Indianapolis Center
Wed 04:02:58 PM 36.7269 -83.1992 214° Southwest 505 581 43,000  Level Indianapolis Center
Wed 04:04:00 PM 36.6106 -83.2989 215° Southwest 507 583 43,000  Level Indianapolis Center
Wed 04:05:09 PM 36.4758 -83.4139 214° Southwest 518 596 43,000  Level Atlanta Center
Wed 04:06:09 PM 36.3594 -83.5128 214° Southwest 518 596 43,000  Level Atlanta Center
Wed 04:07:09 PM 36.2472 -83.6089 215° Southwest 513 590 43,000  Level Atlanta Center
Wed 04:08:09 PM 36.1308 -83.7097 215° Southwest 513 590 43,000  Level Atlanta Center
Wed 04:09:09 PM 36.0122 -83.8050 213° Southwest 513 590 43,000  Level Atlanta Center
Wed 04:10:09 PM 35.9039 -83.9131 219° Southwest 513 590 43,000  Level Atlanta Center
Wed 04:11:09 PM 35.8058 -84.0311 224° Southwest 507 583 43,000  Level Atlanta Center
Wed 04:12:09 PM 35.7119 -84.1564 227° Southwest 501 577 43,000  Level Atlanta Center
Wed 04:13:09 PM 35.6094 -84.2917 227° Southwest 501 577 43,000  Level Atlanta Center
Wed 04:14:09 PM 35.5153 -84.4214 228° Southwest 501 577 43,000  Level Atlanta Center
Wed 04:15:09 PM 35.4231 -84.5458 228° Southwest 501 577 43,000 -600 Level Atlanta Center
Wed 04:16:09 PM 35.3286 -84.6700 227° Southwest 501 577 41,800 -1,567 Descending Atlanta Center
Wed 04:18:09 PM 35.1392 -84.9200 227° Southwest 505 581 38,300 -1,267 Descending Atlanta Center
Wed 04:19:09 PM 35.0508 -85.0383 228° Southwest 494 568 38,000 -150 Descending Atlanta Center
Wed 04:20:09 PM 34.9536 -85.1639 227° Southwest 494 568 38,000  Level Atlanta Center
Wed 04:21:10 PM 34.8647 -85.2969 231° Southwest 504 580 38,000  Level Atlanta Center
Wed 04:22:09 PM 34.7922 -85.4450 239° Southwest 504 580 38,000 2,521 Level Atlanta Center
Wed 04:23:09 PM 34.7258 -85.5856 240° Southwest 504 580 43,000 -1,500 Climbing Atlanta Center
Wed 04:24:09 PM 34.6508 -85.7256 237° Southwest 494 568 35,000 -5,400 Descending Atlanta Center
Wed 04:25:09 PM 34.5511 -85.8394 223° Southwest 487 560 32,200 -3,200 Descending Atlanta Center
Wed 04:26:09 PM 34.4411 -85.9481 219° Southwest 492 566 28,600 -3,500 Descending Atlanta Center
Wed 04:27:09 PM 34.3289 -86.0511 217° Southwest 502 578 25,200 -2,300 Descending Atlanta Center
Wed 04:28:09 PM 34.2208 -86.1489 217° Southwest 507 583 24,000 -600 Descending Atlanta Center
Wed 04:29:09 PM 34.1147 -86.2467 217° Southwest 494 568 24,000  Level Atlanta Center
Wed 04:29:56 PM 34.0383 -86.3175 218° Southwest 468 539 24,000 -1,014 Level Atlanta Center
Wed 04:30:20 PM 33.9894 -86.3614 217° Southwest 467 537 22,800 -3,370 Descending Atlanta Center
Wed 04:31:09 PM 33.9256 -86.4222 218° Southwest 470 541 19,900 -3,853 Descending Atlanta Center
Wed 04:32:09 PM 33.8300 -86.5069 216° Southwest 450 518 15,800 -4,150 Descending Atlanta Center
Wed 04:33:09 PM 33.7428 -86.5894 218° Southwest 423 487 11,600 -3,100 Descending Atlanta Center
Wed 04:34:09 PM 33.6647 -86.6369 207° Southwest 356 410 9,600 -2,400 Descending Atlanta Center
Wed 04:34:29 PM 33.6350 -86.6536 205° Southwest 224 258 8,400 -2,900 Descending Atlanta Center
Wed 04:35:09 PM 33.6117 -86.6728 214° Southwest 281 323 6,700 -3,200 Descending Atlanta Center
Wed 04:35:29 PM 33.6028 -86.6975 247° West 160 184 5,200 -2,900 Descending Atlanta Center
Wed 04:36:09 PM 33.6192 -86.7056 338° Northwest 174 200 3,800 -2,164 Descending Atlanta Center
Wed 04:36:30 PM 33.6219 -86.6856 81° East 136 157 3,000 -1,600 Descending Atlanta Center
Wed 04:37:09 PM 33.6050 -86.6850 178° South 54 62 2,200 -1,300 Descending Atlanta Center
Wed 04:37:30 PM 33.5942 -86.7047 237° Southwest 122 140 1,700 -200 Descending Atlanta Center
Wed 04:38:09 PM 33.5925 -86.6922 99° East 62 71 2,000 -787 Climbing Atlanta Center
Wed 04:38:31 PM 33.5747 -86.7367 244° Southwest 119 137 900 -3,000 Descending Atlanta Center

Login

Don't have an account? Register now (free) for customized features, flight alerts, and more!